sensor_id;sensor_type;location;lat;lon;timestamp;temperature;humidity
12971;DHT22;6550;48.650;8.774;2024-03-08T00:00:11;6.30;99.90
12971;DHT22;6550;48.650;8.774;2024-03-08T00:02:45;6.40;99.90
12971;DHT22;6550;48.650;8.774;2024-03-08T00:05:13;6.40;99.90
12971;DHT22;6550;48.650;8.774;2024-03-08T00:07:43;6.40;99.90
12971;DHT22;6550;48.650;8.774;2024-03-08T00:10:13;6.40;99.90
12971;DHT22;6550;48.650;8.774;2024-03-08T00:12:44;6.30;99.90
12971;DHT22;6550;48.650;8.774;2024-03-08T00:15:16;6.50;99.90
12971;DHT22;6550;48.650;8.774;2024-03-08T00:17:46;6.30;99.90
12971;DHT22;6550;48.650;8.774;2024-03-08T00:20:16;6.50;99.90
12971;DHT22;6550;48.650;8.774;2024-03-08T00:22:45;6.30;99.90
12971;DHT22;6550;48.650;8.774;2024-03-08T00:25:12;6.40;99.90
12971;DHT22;6550;48.650;8.774;2024-03-08T00:27:39;6.40;99.90
12971;DHT22;6550;48.650;8.774;2024-03-08T00:30:10;6.30;99.90
12971;DHT22;6550;48.650;8.774;2024-03-08T00:32:40;6.20;99.90
12971;DHT22;6550;48.650;8.774;2024-03-08T00:35:07;6.60;99.90
12971;DHT22;6550;48.650;8.774;2024-03-08T00:37:40;6.20;99.90
12971;DHT22;6550;48.650;8.774;2024-03-08T00:40:08;6.10;99.90
12971;DHT22;6550;48.650;8.774;2024-03-08T00:42:38;6.10;99.90
12971;DHT22;6550;48.650;8.774;2024-03-08T00:45:06;6.10;99.90
12971;DHT22;6550;48.650;8.774;2024-03-08T00:47:34;6.00;99.90
12971;DHT22;6550;48.650;8.774;2024-03-08T00:50:04;6.00;99.90
12971;DHT22;6550;48.650;8.774;2024-03-08T00:52:31;6.00;99.90
12971;DHT22;6550;48.650;8.774;2024-03-08T00:55:00;5.90;99.90
12971;DHT22;6550;48.650;8.774;2024-03-08T00:57:29;5.80;99.90
12971;DHT22;6550;48.650;8.774;2024-03-08T00:59:56;5.90;99.90
12971;DHT22;6550;48.650;8.774;2024-03-08T01:02:23;5.80;99.90
12971;DHT22;6550;48.650;8.774;2024-03-08T01:04:50;5.90;99.90
12971;DHT22;6550;48.650;8.774;2024-03-08T01:07:16;6.00;99.90
12971;DHT22;6550;48.650;8.774;2024-03-08T01:09:43;6.90;99.90
12971;DHT22;6550;48.650;8.774;2024-03-08T01:12:10;5.80;99.90
12971;DHT22;6550;48.650;8.774;2024-03-08T01:17:04;5.80;99.90
12971;DHT22;6550;48.650;8.774;2024-03-08T01:19:31;6.60;99.90
12971;DHT22;6550;48.650;8.774;2024-03-08T01:21:59;6.00;99.90
12971;DHT22;6550;48.650;8.774;2024-03-08T01:24:26;5.70;99.90
12971;DHT22;6550;48.650;8.774;2024-03-08T01:26:53;5.80;99.90
12971;DHT22;6550;48.650;8.774;2024-03-08T01:29:22;5.70;99.90
12971;DHT22;6550;48.650;8.774;2024-03-08T01:31:49;5.70;99.90
12971;DHT22;6550;48.650;8.774;2024-03-08T01:34:16;5.70;99.90
12971;DHT22;6550;48.650;8.774;2024-03-08T01:36:42;5.60;99.90
12971;DHT22;6550;48.650;8.774;2024-03-08T01:39:11;5.70;99.90
12971;DHT22;6550;48.650;8.774;2024-03-08T01:41:40;5.60;99.90
12971;DHT22;6550;48.650;8.774;2024-03-08T01:44:07;5.60;99.90
12971;DHT22;6550;48.650;8.774;2024-03-08T01:46:36;5.60;99.90
12971;DHT22;6550;48.650;8.774;2024-03-08T01:49:05;5.50;99.90
12971;DHT22;6550;48.650;8.774;2024-03-08T01:51:34;5.60;99.90
12971;DHT22;6550;48.650;8.774;2024-03-08T01:54:02;5.50;99.90
12971;DHT22;6550;48.650;8.774;2024-03-08T01:56:30;5.50;99.90
12971;DHT22;6550;48.650;8.774;2024-03-08T01:58:59;5.50;99.90
12971;DHT22;6550;48.650;8.774;2024-03-08T02:01:29;5.50;99.90
12971;DHT22;6550;48.650;8.774;2024-03-08T02:03:58;5.50;99.90
12971;DHT22;6550;48.650;8.774;2024-03-08T02:06:25;5.40;99.90
12971;DHT22;6550;48.650;8.774;2024-03-08T02:08:52;5.70;99.90
12971;DHT22;6550;48.650;8.774;2024-03-08T02:11:20;5.30;99.90
12971;DHT22;6550;48.650;8.774;2024-03-08T02:13:47;5.30;99.90
12971;DHT22;6550;48.650;8.774;2024-03-08T02:16:22;5.20;99.90
12971;DHT22;6550;48.650;8.774;2024-03-08T02:18:49;5.30;99.90
12971;DHT22;6550;48.650;8.774;2024-03-08T02:21:17;5.30;99.90
12971;DHT22;6550;48.650;8.774;2024-03-08T02:23:45;5.20;99.90
12971;DHT22;6550;48.650;8.774;2024-03-08T02:26:12;5.50;99.90
12971;DHT22;6550;48.650;8.774;2024-03-08T02:28:39;5.10;99.90
12971;DHT22;6550;48.650;8.774;2024-03-08T02:31:06;5.30;99.90
12971;DHT22;6550;48.650;8.774;2024-03-08T02:33:34;5.20;99.90
12971;DHT22;6550;48.650;8.774;2024-03-08T02:36:04;5.20;99.90
12971;DHT22;6550;48.650;8.774;2024-03-08T02:38:32;5.10;99.90
12971;DHT22;6550;48.650;8.774;2024-03-08T02:41:02;5.10;99.90
12971;DHT22;6550;48.650;8.774;2024-03-08T02:43:30;4.90;99.90
12971;DHT22;6550;48.650;8.774;2024-03-08T02:45:57;5.00;99.90
12971;DHT22;6550;48.650;8.774;2024-03-08T02:48:24;5.00;99.90
12971;DHT22;6550;48.650;8.774;2024-03-08T02:50:51;5.00;99.90
12971;DHT22;6550;48.650;8.774;2024-03-08T02:53:22;4.90;99.90
12971;DHT22;6550;48.650;8.774;2024-03-08T02:55:53;5.00;99.90
12971;DHT22;6550;48.650;8.774;2024-03-08T02:58:21;4.90;99.90
12971;DHT22;6550;48.650;8.774;2024-03-08T03:00:50;5.10;99.90
12971;DHT22;6550;48.650;8.774;2024-03-08T03:03:17;4.90;99.90
12971;DHT22;6550;48.650;8.774;2024-03-08T03:05:44;4.60;99.90
12971;DHT22;6550;48.650;8.774;2024-03-08T03:08:15;5.00;99.90
12971;DHT22;6550;48.650;8.774;2024-03-08T03:10:44;4.80;99.90
12971;DHT22;6550;48.650;8.774;2024-03-08T03:13:14;4.80;99.90
12971;DHT22;6550;48.650;8.774;2024-03-08T03:15:41;4.80;99.90
12971;DHT22;6550;48.650;8.774;2024-03-08T03:18:13;4.80;99.90
12971;DHT22;6550;48.650;8.774;2024-03-08T03:20:40;4.70;99.90
12971;DHT22;6550;48.650;8.774;2024-03-08T03:23:13;4.80;99.90
12971;DHT22;6550;48.650;8.774;2024-03-08T03:28:11;4.80;99.90
12971;DHT22;6550;48.650;8.774;2024-03-08T03:30:41;4.70;99.90
12971;DHT22;6550;48.650;8.774;2024-03-08T03:33:10;5.00;99.90
12971;DHT22;6550;48.650;8.774;2024-03-08T03:35:39;4.70;99.90
12971;DHT22;6550;48.650;8.774;2024-03-08T03:38:08;4.60;99.90
12971;DHT22;6550;48.650;8.774;2024-03-08T03:40:39;4.80;99.90
12971;DHT22;6550;48.650;8.774;2024-03-08T03:43:08;4.60;99.90
12971;DHT22;6550;48.650;8.774;2024-03-08T03:45:39;4.60;99.90
12971;DHT22;6550;48.650;8.774;2024-03-08T03:48:08;4.30;99.90
12971;DHT22;6550;48.650;8.774;2024-03-08T03:50:38;4.50;99.90
12971;DHT22;6550;48.650;8.774;2024-03-08T03:53:05;4.50;99.90
12971;DHT22;6550;48.650;8.774;2024-03-08T03:55:36;4.50;99.90
12971;DHT22;6550;48.650;8.774;2024-03-08T03:58:06;4.60;99.90
12971;DHT22;6550;48.650;8.774;2024-03-08T04:00:39;4.50;99.90
12971;DHT22;6550;48.650;8.774;2024-03-08T04:03:07;4.40;99.90
12971;DHT22;6550;48.650;8.774;2024-03-08T04:05:35;4.40;99.90
12971;DHT22;6550;48.650;8.774;2024-03-08T04:08:07;4.30;99.90
12971;DHT22;6550;48.650;8.774;2024-03-08T04:10:36;4.60;99.90
12971;DHT22;6550;48.650;8.774;2024-03-08T04:15:30;4.30;99.90
12971;DHT22;6550;48.650;8.774;2024-03-08T04:17:57;4.40;99.90
12971;DHT22;6550;48.650;8.774;2024-03-08T04:20:24;4.40;99.90
12971;DHT22;6550;48.650;8.774;2024-03-08T04:22:51;4.30;99.90
12971;DHT22;6550;48.650;8.774;2024-03-08T04:27:46;4.50;99.90
12971;DHT22;6550;48.650;8.774;2024-03-08T04:30:17;4.20;99.90
12971;DHT22;6550;48.650;8.774;2024-03-08T04:32:44;4.30;99.90
12971;DHT22;6550;48.650;8.774;2024-03-08T04:35:11;4.50;99.90
12971;DHT22;6550;48.650;8.774;2024-03-08T04:37:39;4.50;99.90
12971;DHT22;6550;48.650;8.774;2024-03-08T04:40:06;4.30;99.90
12971;DHT22;6550;48.650;8.774;2024-03-08T04:42:33;4.30;99.90
12971;DHT22;6550;48.650;8.774;2024-03-08T04:47:30;4.10;99.90
12971;DHT22;6550;48.650;8.774;2024-03-08T04:49:57;4.10;99.90
12971;DHT22;6550;48.650;8.774;2024-03-08T04:52:26;4.40;99.90
12971;DHT22;6550;48.650;8.774;2024-03-08T04:54:55;4.20;99.90
12971;DHT22;6550;48.650;8.774;2024-03-08T04:57:27;4.10;99.90
12971;DHT22;6550;48.650;8.774;2024-03-08T04:59:54;4.00;99.90
12971;DHT22;6550;48.650;8.774;2024-03-08T05:02:21;4.00;99.90
12971;DHT22;6550;48.650;8.774;2024-03-08T05:04:49;3.90;99.90
12971;DHT22;6550;48.650;8.774;2024-03-08T05:07:16;4.00;99.90
12971;DHT22;6550;48.650;8.774;2024-03-08T05:09:46;3.90;99.90
12971;DHT22;6550;48.650;8.774;2024-03-08T05:12:19;4.10;99.90
12971;DHT22;6550;48.650;8.774;2024-03-08T05:14:46;4.00;99.90
12971;DHT22;6550;48.650;8.774;2024-03-08T05:17:19;4.20;99.90
12971;DHT22;6550;48.650;8.774;2024-03-08T05:19:50;4.00;99.90
12971;DHT22;6550;48.650;8.774;2024-03-08T05:22:17;4.60;99.90
12971;DHT22;6550;48.650;8.774;2024-03-08T05:24:45;7.50;99.90
12971;DHT22;6550;48.650;8.774;2024-03-08T05:32:07;7.90;99.90
12971;DHT22;6550;48.650;8.774;2024-03-08T05:34:34;6.80;99.90
12971;DHT22;6550;48.650;8.774;2024-03-08T05:37:03;6.70;99.90
12971;DHT22;6550;48.650;8.774;2024-03-08T05:39:30;6.70;99.90
12971;DHT22;6550;48.650;8.774;2024-03-08T05:41:59;6.80;99.90
12971;DHT22;6550;48.650;8.774;2024-03-08T05:44:26;6.60;99.90
12971;DHT22;6550;48.650;8.774;2024-03-08T05:46:57;6.40;99.90
12971;DHT22;6550;48.650;8.774;2024-03-08T05:49:24;7.10;99.90
12971;DHT22;6550;48.650;8.774;2024-03-08T05:51:51;7.10;99.90
12971;DHT22;6550;48.650;8.774;2024-03-08T05:54:18;7.10;99.90
12971;DHT22;6550;48.650;8.774;2024-03-08T05:56:49;7.30;99.90
12971;DHT22;6550;48.650;8.774;2024-03-08T05:59:19;7.80;99.90
12971;DHT22;6550;48.650;8.774;2024-03-08T06:01:48;7.30;99.90
12971;DHT22;6550;48.650;8.774;2024-03-08T06:04:15;7.60;99.90
12971;DHT22;6550;48.650;8.774;2024-03-08T06:06:44;7.50;99.90
12971;DHT22;6550;48.650;8.774;2024-03-08T06:09:16;8.10;99.90
12971;DHT22;6550;48.650;8.774;2024-03-08T06:11:49;8.20;99.90
12971;DHT22;6550;48.650;8.774;2024-03-08T06:14:16;8.40;99.90
12971;DHT22;6550;48.650;8.774;2024-03-08T06:16:49;8.30;99.90
12971;DHT22;6550;48.650;8.774;2024-03-08T06:19:17;8.30;99.90
12971;DHT22;6550;48.650;8.774;2024-03-08T06:21:44;8.60;99.90
12971;DHT22;6550;48.650;8.774;2024-03-08T06:24:11;8.40;99.90
12971;DHT22;6550;48.650;8.774;2024-03-08T06:26:38;8.90;99.90
12971;DHT22;6550;48.650;8.774;2024-03-08T06:29:05;8.60;99.90
12971;DHT22;6550;48.650;8.774;2024-03-08T06:31:35;8.30;99.90
12971;DHT22;6550;48.650;8.774;2024-03-08T06:34:06;8.50;99.90
12971;DHT22;6550;48.650;8.774;2024-03-08T06:36:36;8.90;99.90
12971;DHT22;6550;48.650;8.774;2024-03-08T06:39:07;8.80;99.90
12971;DHT22;6550;48.650;8.774;2024-03-08T06:41:37;8.70;99.90
12971;DHT22;6550;48.650;8.774;2024-03-08T06:44:04;8.60;99.90
12971;DHT22;6550;48.650;8.774;2024-03-08T06:46:34;9.40;99.90
12971;DHT22;6550;48.650;8.774;2024-03-08T06:49:01;8.90;99.90
12971;DHT22;6550;48.650;8.774;2024-03-08T06:51:29;8.50;99.90
12971;DHT22;6550;48.650;8.774;2024-03-08T06:53:59;9.10;99.90
12971;DHT22;6550;48.650;8.774;2024-03-08T06:56:25;8.60;99.90
12971;DHT22;6550;48.650;8.774;2024-03-08T06:58:55;8.90;99.90
12971;DHT22;6550;48.650;8.774;2024-03-08T07:01:24;8.90;99.90
12971;DHT22;6550;48.650;8.774;2024-03-08T07:06:21;9.80;99.90
12971;DHT22;6550;48.650;8.774;2024-03-08T07:08:49;9.40;99.90
12971;DHT22;6550;48.650;8.774;2024-03-08T07:11:18;9.40;99.90
12971;DHT22;6550;48.650;8.774;2024-03-08T07:13:47;9.80;99.90
12971;DHT22;6550;48.650;8.774;2024-03-08T07:16:14;9.80;99.90
12971;DHT22;6550;48.650;8.774;2024-03-08T07:18:41;9.70;99.90
12971;DHT22;6550;48.650;8.774;2024-03-08T07:21:10;9.80;99.90
12971;DHT22;6550;48.650;8.774;2024-03-08T07:23:39;9.80;99.90
12971;DHT22;6550;48.650;8.774;2024-03-08T07:26:16;9.80;99.90
12971;DHT22;6550;48.650;8.774;2024-03-08T07:31:10;9.80;99.90
12971;DHT22;6550;48.650;8.774;2024-03-08T07:33:43;9.70;99.90
12971;DHT22;6550;48.650;8.774;2024-03-08T07:36:11;9.90;99.90
12971;DHT22;6550;48.650;8.774;2024-03-08T07:38:38;10.00;99.90
12971;DHT22;6550;48.650;8.774;2024-03-08T07:41:07;9.80;99.90
12971;DHT22;6550;48.650;8.774;2024-03-08T07:43:34;9.80;99.90
12971;DHT22;6550;48.650;8.774;2024-03-08T07:46:01;9.80;99.90
12971;DHT22;6550;48.650;8.774;2024-03-08T07:55:53;10.00;99.90
12971;DHT22;6550;48.650;8.774;2024-03-08T07:58:22;10.20;99.90
12971;DHT22;6550;48.650;8.774;2024-03-08T08:00:52;10.60;99.90
12971;DHT22;6550;48.650;8.774;2024-03-08T08:03:19;10.70;99.90
12971;DHT22;6550;48.650;8.774;2024-03-08T08:05:48;10.80;99.90
12971;DHT22;6550;48.650;8.774;2024-03-08T08:08:17;10.60;99.90
12971;DHT22;6550;48.650;8.774;2024-03-08T08:13:13;9.90;99.90
12971;DHT22;6550;48.650;8.774;2024-03-08T08:15:43;10.70;99.90
12971;DHT22;6550;48.650;8.774;2024-03-08T08:20:38;11.40;99.90
12971;DHT22;6550;48.650;8.774;2024-03-08T08:23:09;13.50;99.90
12971;DHT22;6550;48.650;8.774;2024-03-08T08:25:40;11.10;99.90
12971;DHT22;6550;48.650;8.774;2024-03-08T08:28:06;10.90;99.90
12971;DHT22;6550;48.650;8.774;2024-03-08T08:30:36;10.80;99.90
12971;DHT22;6550;48.650;8.774;2024-03-08T08:33:03;11.00;99.90
12971;DHT22;6550;48.650;8.774;2024-03-08T08:35:32;10.70;99.90
12971;DHT22;6550;48.650;8.774;2024-03-08T08:38:02;10.50;99.90
12971;DHT22;6550;48.650;8.774;2024-03-08T08:47:53;12.10;99.90
12971;DHT22;6550;48.650;8.774;2024-03-08T08:50:23;12.10;99.90
12971;DHT22;6550;48.650;8.774;2024-03-08T08:55:27;11.70;99.90
12971;DHT22;6550;48.650;8.774;2024-03-08T09:00:23;11.70;99.90
12971;DHT22;6550;48.650;8.774;2024-03-08T09:02:54;11.90;99.90
12971;DHT22;6550;48.650;8.774;2024-03-08T09:05:24;11.80;99.90
12971;DHT22;6550;48.650;8.774;2024-03-08T09:10:19;11.90;99.90
12971;DHT22;6550;48.650;8.774;2024-03-08T09:15:14;11.80;99.90
12971;DHT22;6550;48.650;8.774;2024-03-08T09:17:41;12.20;99.90
12971;DHT22;6550;48.650;8.774;2024-03-08T09:20:09;12.60;99.90
12971;DHT22;6550;48.650;8.774;2024-03-08T09:22:37;12.20;99.90
12971;DHT22;6550;48.650;8.774;2024-03-08T09:25:09;11.70;99.90
12971;DHT22;6550;48.650;8.774;2024-03-08T09:30:06;12.40;99.90
12971;DHT22;6550;48.650;8.774;2024-03-08T09:32:35;12.40;99.90
12971;DHT22;6550;48.650;8.774;2024-03-08T09:35:06;12.60;99.90
12971;DHT22;6550;48.650;8.774;2024-03-08T09:37:34;12.20;99.90
12971;DHT22;6550;48.650;8.774;2024-03-08T09:40:04;13.20;99.90
12971;DHT22;6550;48.650;8.774;2024-03-08T09:42:36;12.10;99.90
12971;DHT22;6550;48.650;8.774;2024-03-08T09:45:12;12.10;99.90
12971;DHT22;6550;48.650;8.774;2024-03-08T09:47:43;11.80;99.90
12971;DHT22;6550;48.650;8.774;2024-03-08T09:50:13;12.60;99.90
12971;DHT22;6550;48.650;8.774;2024-03-08T09:52:40;12.30;99.90
12971;DHT22;6550;48.650;8.774;2024-03-08T09:57:44;12.40;99.90
12971;DHT22;6550;48.650;8.774;2024-03-08T10:00:34;12.50;99.90
12971;DHT22;6550;48.650;8.774;2024-03-08T10:03:03;13.80;99.90
12971;DHT22;6550;48.650;8.774;2024-03-08T10:05:31;12.10;99.90
12971;DHT22;6550;48.650;8.774;2024-03-08T10:08:00;13.20;99.90
12971;DHT22;6550;48.650;8.774;2024-03-08T10:10:27;13.10;99.90
12971;DHT22;6550;48.650;8.774;2024-03-08T10:20:22;12.90;99.70
12971;DHT22;6550;48.650;8.774;2024-03-08T10:22:52;12.60;99.90
12971;DHT22;6550;48.650;8.774;2024-03-08T10:25:36;13.40;99.90
12971;DHT22;6550;48.650;8.774;2024-03-08T10:28:04;12.10;99.90
12971;DHT22;6550;48.650;8.774;2024-03-08T10:30:33;12.10;99.90
12971;DHT22;6550;48.650;8.774;2024-03-08T10:33:02;12.60;99.90
12971;DHT22;6550;48.650;8.774;2024-03-08T10:35:32;13.30;99.80
12971;DHT22;6550;48.650;8.774;2024-03-08T10:38:06;13.70;99.10
12971;DHT22;6550;48.650;8.774;2024-03-08T10:40:38;14.00;97.70
12971;DHT22;6550;48.650;8.774;2024-03-08T10:43:16;13.50;97.90
12971;DHT22;6550;48.650;8.774;2024-03-08T10:45:46;14.30;97.40
12971;DHT22;6550;48.650;8.774;2024-03-08T10:50:52;13.90;97.50
12971;DHT22;6550;48.650;8.774;2024-03-08T10:53:22;15.20;98.10
12971;DHT22;6550;48.650;8.774;2024-03-08T10:55:53;14.20;97.40
12971;DHT22;6550;48.650;8.774;2024-03-08T10:58:24;13.50;98.10
12971;DHT22;6550;48.650;8.774;2024-03-08T11:00:54;13.20;99.50
12971;DHT22;6550;48.650;8.774;2024-03-08T11:03:45;13.40;99.40
12971;DHT22;6550;48.650;8.774;2024-03-08T11:06:18;13.60;98.50
12971;DHT22;6550;48.650;8.774;2024-03-08T11:08:49;14.00;98.50
12971;DHT22;6550;48.650;8.774;2024-03-08T11:11:31;14.10;97.90
12971;DHT22;6550;48.650;8.774;2024-03-08T11:14:03;14.10;97.80
12971;DHT22;6550;48.650;8.774;2024-03-08T11:19:00;13.80;98.50
12971;DHT22;6550;48.650;8.774;2024-03-08T11:21:31;14.10;97.80
12971;DHT22;6550;48.650;8.774;2024-03-08T11:24:00;14.30;97.90
12971;DHT22;6550;48.650;8.774;2024-03-08T11:26:29;14.20;97.70
12971;DHT22;6550;48.650;8.774;2024-03-08T11:34:45;14.60;97.60
12971;DHT22;6550;48.650;8.774;2024-03-08T11:37:17;14.00;97.70
12971;DHT22;6550;48.650;8.774;2024-03-08T11:42:18;14.20;97.40
12971;DHT22;6550;48.650;8.774;2024-03-08T11:44:49;14.30;97.60
12971;DHT22;6550;48.650;8.774;2024-03-08T11:47:20;14.30;97.60
12971;DHT22;6550;48.650;8.774;2024-03-08T11:49:49;15.40;97.40
12971;DHT22;6550;48.650;8.774;2024-03-08T11:52:17;14.70;96.80
12971;DHT22;6550;48.650;8.774;2024-03-08T11:54:54;14.70;97.30
12971;DHT22;6550;48.650;8.774;2024-03-08T11:57:24;15.00;97.10
12971;DHT22;6550;48.650;8.774;2024-03-08T11:59:52;14.70;97.10
12971;DHT22;6550;48.650;8.774;2024-03-08T12:02:25;15.00;97.50
12971;DHT22;6550;48.650;8.774;2024-03-08T12:04:58;16.60;99.90
12971;DHT22;6550;48.650;8.774;2024-03-08T12:07:27;15.40;96.50
12971;DHT22;6550;48.650;8.774;2024-03-08T12:10:18;15.20;96.20
12971;DHT22;6550;48.650;8.774;2024-03-08T12:12:50;15.40;95.70
12971;DHT22;6550;48.650;8.774;2024-03-08T12:15:19;15.70;96.60
12971;DHT22;6550;48.650;8.774;2024-03-08T12:17:51;15.50;95.50
12971;DHT22;6550;48.650;8.774;2024-03-08T12:20:23;15.60;95.60
12971;DHT22;6550;48.650;8.774;2024-03-08T12:22:53;15.60;96.60
12971;DHT22;6550;48.650;8.774;2024-03-08T12:25:29;15.50;96.80
12971;DHT22;6550;48.650;8.774;2024-03-08T12:28:10;15.80;96.20
12971;DHT22;6550;48.650;8.774;2024-03-08T12:30:49;15.80;96.00
12971;DHT22;6550;48.650;8.774;2024-03-08T12:33:17;15.90;96.30
12971;DHT22;6550;48.650;8.774;2024-03-08T12:35:56;15.90;96.20
12971;DHT22;6550;48.650;8.774;2024-03-08T12:38:28;16.20;95.10
12971;DHT22;6550;48.650;8.774;2024-03-08T12:40:56;16.20;95.00
12971;DHT22;6550;48.650;8.774;2024-03-08T12:43:24;16.30;95.20
12971;DHT22;6550;48.650;8.774;2024-03-08T12:45:55;16.20;95.60
12971;DHT22;6550;48.650;8.774;2024-03-08T12:48:24;16.60;95.20
12971;DHT22;6550;48.650;8.774;2024-03-08T12:50:51;16.70;94.50
12971;DHT22;6550;48.650;8.774;2024-03-08T12:53:20;16.60;93.60
12971;DHT22;6550;48.650;8.774;2024-03-08T12:55:48;17.10;93.50
12971;DHT22;6550;48.650;8.774;2024-03-08T12:58:17;16.90;93.90
12971;DHT22;6550;48.650;8.774;2024-03-08T13:00:44;16.60;94.90
12971;DHT22;6550;48.650;8.774;2024-03-08T13:03:11;17.50;94.40
12971;DHT22;6550;48.650;8.774;2024-03-08T13:05:40;16.80;94.90
12971;DHT22;6550;48.650;8.774;2024-03-08T13:08:09;16.70;95.00
12971;DHT22;6550;48.650;8.774;2024-03-08T13:10:40;16.70;94.20
12971;DHT22;6550;48.650;8.774;2024-03-08T13:13:06;16.80;94.10
12971;DHT22;6550;48.650;8.774;2024-03-08T13:15:33;16.80;94.20
12971;DHT22;6550;48.650;8.774;2024-03-08T13:18:05;16.60;93.50
12971;DHT22;6550;48.650;8.774;2024-03-08T13:20:35;16.80;94.00
12971;DHT22;6550;48.650;8.774;2024-03-08T13:23:14;16.70;92.80
12971;DHT22;6550;48.650;8.774;2024-03-08T13:25:46;16.70;93.80
12971;DHT22;6550;48.650;8.774;2024-03-08T13:28:16;16.60;93.10
12971;DHT22;6550;48.650;8.774;2024-03-08T13:30:48;16.50;93.40
12971;DHT22;6550;48.650;8.774;2024-03-08T13:33:15;16.40;93.70
12971;DHT22;6550;48.650;8.774;2024-03-08T13:35:44;16.40;93.40
12971;DHT22;6550;48.650;8.774;2024-03-08T13:38:17;16.70;93.20
12971;DHT22;6550;48.650;8.774;2024-03-08T13:40:46;16.30;92.70
12971;DHT22;6550;48.650;8.774;2024-03-08T13:43:16;16.70;93.10
12971;DHT22;6550;48.650;8.774;2024-03-08T13:45:43;16.40;93.10
12971;DHT22;6550;48.650;8.774;2024-03-08T13:48:10;16.30;92.50
12971;DHT22;6550;48.650;8.774;2024-03-08T13:50:39;16.30;93.10
12971;DHT22;6550;48.650;8.774;2024-03-08T13:53:06;16.30;92.90
12971;DHT22;6550;48.650;8.774;2024-03-08T13:55:37;16.20;93.00
12971;DHT22;6550;48.650;8.774;2024-03-08T13:58:07;16.10;93.00
12971;DHT22;6550;48.650;8.774;2024-03-08T14:00:36;16.00;93.60
12971;DHT22;6550;48.650;8.774;2024-03-08T14:03:08;15.90;93.90
12971;DHT22;6550;48.650;8.774;2024-03-08T14:05:42;15.80;93.50
12971;DHT22;6550;48.650;8.774;2024-03-08T14:08:09;15.70;93.80
12971;DHT22;6550;48.650;8.774;2024-03-08T14:10:42;15.80;93.60
12971;DHT22;6550;48.650;8.774;2024-03-08T14:13:13;15.60;93.30
12971;DHT22;6550;48.650;8.774;2024-03-08T14:15:42;15.50;94.30
12971;DHT22;6550;48.650;8.774;2024-03-08T14:18:15;16.30;93.70
12971;DHT22;6550;48.650;8.774;2024-03-08T14:20:44;15.60;93.60
12971;DHT22;6550;48.650;8.774;2024-03-08T14:23:11;15.30;94.00
12971;DHT22;6550;48.650;8.774;2024-03-08T14:25:39;15.30;93.80
12971;DHT22;6550;48.650;8.774;2024-03-08T14:28:08;15.30;93.80
12971;DHT22;6550;48.650;8.774;2024-03-08T14:30:38;15.20;94.50
12971;DHT22;6550;48.650;8.774;2024-03-08T14:33:10;15.20;94.80
12971;DHT22;6550;48.650;8.774;2024-03-08T14:35:38;15.20;94.30
12971;DHT22;6550;48.650;8.774;2024-03-08T14:38:05;15.20;94.30
12971;DHT22;6550;48.650;8.774;2024-03-08T14:40:35;15.00;94.30
12971;DHT22;6550;48.650;8.774;2024-03-08T14:43:05;16.20;94.50
12971;DHT22;6550;48.650;8.774;2024-03-08T14:45:35;15.10;94.20
12971;DHT22;6550;48.650;8.774;2024-03-08T14:48:06;15.30;94.40
12971;DHT22;6550;48.650;8.774;2024-03-08T14:50:33;14.60;94.60
12971;DHT22;6550;48.650;8.774;2024-03-08T14:53:00;13.90;96.00
12971;DHT22;6550;48.650;8.774;2024-03-08T14:55:27;14.40;96.90
12971;DHT22;6550;48.650;8.774;2024-03-08T14:57:54;13.60;97.20
12971;DHT22;6550;48.650;8.774;2024-03-08T15:00:25;13.10;97.30
12971;DHT22;6550;48.650;8.774;2024-03-08T15:03:02;13.00;97.90
12971;DHT22;6550;48.650;8.774;2024-03-08T15:05:35;13.00;98.10
12971;DHT22;6550;48.650;8.774;2024-03-08T15:08:06;12.90;98.60
12971;DHT22;6550;48.650;8.774;2024-03-08T15:10:38;12.90;99.20
12971;DHT22;6550;48.650;8.774;2024-03-08T15:13:08;12.80;98.70
12971;DHT22;6550;48.650;8.774;2024-03-08T15:15:42;13.20;98.20
12971;DHT22;6550;48.650;8.774;2024-03-08T15:18:10;13.10;98.50
12971;DHT22;6550;48.650;8.774;2024-03-08T15:20:39;13.20;98.00
12971;DHT22;6550;48.650;8.774;2024-03-08T15:23:06;12.90;97.50
12971;DHT22;6550;48.650;8.774;2024-03-08T15:25:39;12.80;98.50
12971;DHT22;6550;48.650;8.774;2024-03-08T15:33:16;12.60;98.80
12971;DHT22;6550;48.650;8.774;2024-03-08T15:35:51;12.60;99.20
12971;DHT22;6550;48.650;8.774;2024-03-08T15:38:25;12.30;99.80
12971;DHT22;6550;48.650;8.774;2024-03-08T15:40:54;12.20;99.70
12971;DHT22;6550;48.650;8.774;2024-03-08T15:43:22;12.40;99.70
12971;DHT22;6550;48.650;8.774;2024-03-08T15:45:48;12.60;99.90
12971;DHT22;6550;48.650;8.774;2024-03-08T15:48:18;12.40;99.90
12971;DHT22;6550;48.650;8.774;2024-03-08T15:50:45;12.70;99.70
12971;DHT22;6550;48.650;8.774;2024-03-08T15:55:41;12.40;99.50
12971;DHT22;6550;48.650;8.774;2024-03-08T15:58:11;13.60;99.90
12971;DHT22;6550;48.650;8.774;2024-03-08T16:00:40;12.30;99.90
12971;DHT22;6550;48.650;8.774;2024-03-08T16:03:15;12.30;99.90
12971;DHT22;6550;48.650;8.774;2024-03-08T16:05:43;12.20;99.90
12971;DHT22;6550;48.650;8.774;2024-03-08T16:08:14;12.20;99.90
12971;DHT22;6550;48.650;8.774;2024-03-08T16:10:49;12.20;99.90
12971;DHT22;6550;48.650;8.774;2024-03-08T16:13:18;12.60;99.90
12971;DHT22;6550;48.650;8.774;2024-03-08T16:15:47;12.10;99.90
12971;DHT22;6550;48.650;8.774;2024-03-08T16:18:18;12.10;99.90
12971;DHT22;6550;48.650;8.774;2024-03-08T16:20:54;12.00;99.90
12971;DHT22;6550;48.650;8.774;2024-03-08T16:23:23;12.00;99.90
12971;DHT22;6550;48.650;8.774;2024-03-08T16:28:17;11.90;99.90
12971;DHT22;6550;48.650;8.774;2024-03-08T16:30:44;11.80;99.90
12971;DHT22;6550;48.650;8.774;2024-03-08T16:33:15;11.60;99.90
12971;DHT22;6550;48.650;8.774;2024-03-08T16:35:43;11.30;99.90
12971;DHT22;6550;48.650;8.774;2024-03-08T16:38:11;11.20;99.90
12971;DHT22;6550;48.650;8.774;2024-03-08T16:40:40;11.20;99.90
12971;DHT22;6550;48.650;8.774;2024-03-08T16:43:07;11.60;99.90
12971;DHT22;6550;48.650;8.774;2024-03-08T16:45:46;11.50;99.90
12971;DHT22;6550;48.650;8.774;2024-03-08T16:48:17;11.10;99.90
12971;DHT22;6550;48.650;8.774;2024-03-08T16:50:45;11.80;99.90
12971;DHT22;6550;48.650;8.774;2024-03-08T16:53:12;10.80;99.90
12971;DHT22;6550;48.650;8.774;2024-03-08T16:55:39;10.90;99.90
12971;DHT22;6550;48.650;8.774;2024-03-08T16:58:07;10.80;99.90
12971;DHT22;6550;48.650;8.774;2024-03-08T17:00:41;10.70;99.90
12971;DHT22;6550;48.650;8.774;2024-03-08T17:03:08;10.60;99.90
12971;DHT22;6550;48.650;8.774;2024-03-08T17:05:39;10.50;99.90
12971;DHT22;6550;48.650;8.774;2024-03-08T17:08:11;10.30;99.90
12971;DHT22;6550;48.650;8.774;2024-03-08T17:13:10;10.30;99.90
12971;DHT22;6550;48.650;8.774;2024-03-08T17:15:38;10.20;99.90
12971;DHT22;6550;48.650;8.774;2024-03-08T17:18:06;9.90;99.90
12971;DHT22;6550;48.650;8.774;2024-03-08T17:20:39;10.30;99.90
12971;DHT22;6550;48.650;8.774;2024-03-08T17:23:08;9.80;99.90
12971;DHT22;6550;48.650;8.774;2024-03-08T17:25:43;12.10;99.90
12971;DHT22;6550;48.650;8.774;2024-03-08T17:28:12;9.50;99.90
12971;DHT22;6550;48.650;8.774;2024-03-08T17:30:41;9.60;99.90
12971;DHT22;6550;48.650;8.774;2024-03-08T17:33:13;9.60;99.90
12971;DHT22;6550;48.650;8.774;2024-03-08T17:35:42;9.50;99.90